Main page
METAR-TAF:

METAR-TAF

Airports :

Chios Island National Airport

Chios, Greece

latitude: 38-20N, longitude: 026-08E, elevation: 5 m

Current weather observation

The report was made 2 hours and 36 minutes ago, at 20:50 UTC
Wind 10 kt from the North
Temperature 27°C
Humidity 37%
Pressure 1003 hPa
Visibility 10 km or more
Few clouds at a height of 2000 ft

METAR: LGHI 162050Z 36010KT 9999 FEW020 27/11 Q1003

Time: 02:26 (23:26 UTC)

Forecast

The report was made 3 hours and 26 minutes ago, at 20:00 UTC
Forecast valid from 16 at 21 UTC to 17 at 06 UTC
Wind 12 kt from the North
Visibility 10 km or more
Scattered clouds at a height of 2000 ft
Probability 30% :
Temporary
from 16 at 21 UTC to 17 at 05 UTC
Visibility: 5000 m
Scattered clouds at a height of 2000 ft
Broken clouds at a height of 5000 ft
rain

TAF: LGHI 162000Z 1621/1706 01012KT 9999 SCT020 PROB30 TEMPO 1621/1705 5000 RA SCT020 BKN050

Weather observations and forecasts of more than 4000 airports (METAR and TAF reports).

The available stations are represented by yellow and red dots on the map.

Hover mouse over dot to see the name of the station.

Then click to see weather observations and forecasts.

To change the map : click on the green buttons with a black cross to zoom in, on the green button with a dash to zoom out, or on the green arrows for adjacent maps.


METAR-TAF: